createdAt,value
2023-03-23T06:04:05.749Z,500.00
2023-03-23T06:05:06.798Z,500.00
2023-03-23T06:06:06.813Z,500.00
2023-03-23T06:07:06.883Z,500.00
2023-03-23T06:08:06.883Z,500.00
2023-03-23T06:09:07.298Z,400.00
2023-03-23T06:10:06.916Z,400.00
2023-03-23T06:13:06.028Z,400.00
2023-03-23T06:14:07.067Z,400.00
2023-03-23T06:15:07.106Z,400.00
2023-03-23T06:16:07.147Z,400.00
2023-03-23T06:17:07.180Z,400.00
2023-03-23T06:18:07.220Z,400.00
2023-03-23T06:19:07.256Z,400.00
2023-03-23T06:20:07.275Z,400.00
2023-03-23T06:21:07.433Z,400.00
2023-03-23T06:22:07.294Z,400.00
2023-03-23T06:23:07.288Z,400.00
2023-03-23T06:24:07.293Z,400.00
2023-03-23T06:28:06.244Z,400.00
2023-03-23T06:30:06.247Z,400.00
2023-03-23T06:31:07.217Z,415.00
2023-03-23T06:32:07.211Z,453.00
2023-03-23T06:33:07.209Z,500.00
2023-03-23T06:37:06.191Z,503.00
2023-03-23T06:38:07.179Z,500.00
2023-03-23T06:40:06.162Z,502.00
2023-03-23T06:41:07.163Z,502.00
2023-03-23T06:43:06.128Z,506.00
2023-03-23T06:44:07.132Z,507.00
2023-03-23T06:45:06.144Z,510.00
2023-03-23T06:46:06.120Z,503.00
2023-03-23T06:50:06.095Z,503.00
2023-03-23T06:51:07.235Z,504.00
2023-03-23T06:54:06.095Z,507.00
2023-03-23T06:55:07.062Z,505.00
2023-03-23T06:56:07.055Z,501.00
2023-03-23T06:58:06.061Z,500.00
2023-03-23T06:59:07.040Z,503.00
2023-03-23T07:02:06.154Z,503.00
2023-03-23T07:03:07.011Z,501.00
2023-03-23T07:06:07.006Z,506.00
2023-03-23T07:07:07.060Z,501.00
2023-03-23T07:08:06.983Z,502.00
2023-03-23T07:12:05.954Z,503.00
2023-03-23T07:13:06.946Z,507.00
2023-03-23T07:14:06.933Z,507.00
2023-03-23T07:17:05.933Z,506.00
2023-03-23T07:19:05.967Z,500.00
2023-03-23T07:20:05.994Z,500.00
2023-03-23T07:21:07.026Z,508.00
2023-03-23T07:22:07.043Z,507.00
2023-03-23T07:23:07.086Z,503.00
2023-03-23T07:27:06.098Z,506.00
2023-03-23T07:28:07.104Z,505.00
2023-03-23T07:29:07.123Z,505.00
2023-03-23T07:33:06.183Z,510.00
2023-03-23T07:36:06.221Z,507.00
2023-03-23T07:37:06.202Z,513.00
2023-03-23T07:41:06.230Z,508.00
2023-03-23T07:44:06.264Z,509.00
2023-03-23T07:48:12.769Z,511.00
2023-03-23T07:49:07.301Z,511.00
2023-03-23T07:51:06.294Z,508.00
2023-03-23T07:55:06.264Z,507.00
2023-03-23T07:56:07.252Z,517.00
2023-03-23T07:59:06.265Z,509.00
2023-03-23T08:00:07.217Z,510.00
2023-03-23T08:05:06.180Z,512.00
2023-03-23T08:06:06.182Z,505.00
2023-03-23T08:07:06.157Z,514.00
2023-03-23T08:08:07.163Z,514.00
2023-03-23T08:14:06.098Z,513.00
2023-03-23T08:15:07.104Z,515.00
2023-03-23T08:16:07.103Z,510.00
2023-03-23T08:21:06.058Z,513.00
2023-03-23T08:22:07.085Z,513.00
2023-03-23T08:24:06.116Z,515.00
2023-03-23T08:25:07.139Z,521.00
2023-03-23T08:26:07.153Z,514.00
2023-03-23T08:27:07.180Z,514.00
2023-03-23T08:29:06.168Z,519.00
2023-03-23T08:30:07.173Z,515.00
2023-03-23T08:33:06.175Z,517.00
2023-03-23T08:34:07.161Z,519.00
2023-03-23T08:38:06.165Z,517.00
2023-03-23T08:39:07.160Z,522.00
2023-03-23T08:42:06.162Z,521.00
2023-03-23T08:43:07.705Z,515.00
2023-03-23T08:44:06.143Z,518.00
2023-03-23T08:45:06.148Z,523.00
2023-03-23T08:46:07.143Z,518.00
2023-03-23T08:49:06.148Z,517.00
2023-03-23T08:50:07.159Z,525.00
2023-03-23T08:51:07.154Z,520.00
2023-03-23T08:52:07.165Z,523.00
2023-03-23T08:53:07.182Z,524.00
2023-03-23T08:55:06.182Z,525.00
2023-03-23T08:56:07.183Z,523.00
2023-03-23T08:57:06.183Z,520.00
2023-03-23T08:58:07.206Z,525.00
2023-03-23T08:59:07.225Z,524.00
2023-03-23T09:02:06.231Z,521.00
2023-03-23T09:03:07.242Z,526.00
2023-03-23T09:09:06.231Z,520.00
2023-03-23T09:12:06.246Z,528.00
2023-03-23T09:13:07.227Z,526.00
2023-03-23T09:14:07.244Z,522.00
2023-03-23T09:15:07.290Z,526.00
2023-03-23T09:17:06.276Z,528.00
2023-03-23T09:18:07.254Z,521.00
2023-03-23T09:22:06.281Z,530.00
2023-03-23T09:23:06.280Z,528.00
2023-03-23T09:24:07.307Z,530.00
2023-03-23T09:25:08.086Z,529.00
2023-03-23T09:27:06.299Z,526.00
2023-03-23T09:28:07.284Z,530.00
2023-03-23T09:32:06.299Z,528.00
2023-03-23T09:33:07.249Z,528.00
2023-03-23T09:34:07.255Z,526.00
2023-03-23T09:36:06.279Z,526.00
2023-03-23T09:37:07.264Z,524.00
2023-03-23T09:40:06.531Z,523.00
2023-03-23T09:41:07.198Z,527.00
2023-03-23T09:42:07.200Z,530.00
2023-03-23T09:43:06.188Z,530.00
2023-03-23T09:44:07.187Z,528.00
2023-03-23T09:45:07.204Z,525.00
2023-03-23T09:51:06.133Z,523.00
2023-03-23T09:52:06.135Z,520.00
2023-03-23T09:53:07.113Z,527.00
2023-03-23T09:56:06.095Z,525.00
2023-03-23T10:00:06.075Z,526.00
2023-03-23T10:01:07.103Z,525.00
2023-03-23T10:04:06.063Z,542.00
2023-03-23T10:05:07.030Z,550.00
2023-03-23T10:06:07.053Z,553.00
2023-03-23T10:08:06.018Z,557.00
2023-03-23T10:09:07.019Z,566.00
2023-03-23T10:10:07.018Z,578.00
2023-03-23T10:13:06.125Z,588.00
2023-03-23T10:14:07.224Z,590.00
2023-03-23T10:15:07.249Z,593.00
2023-03-23T10:16:07.330Z,590.00
2023-03-23T10:17:07.523Z,601.00
2023-03-23T10:18:06.410Z,596.00
2023-03-23T10:19:07.487Z,601.00
2023-03-23T10:20:07.504Z,596.00
2023-03-23T10:21:06.554Z,600.00
2023-03-23T10:22:07.613Z,599.00
2023-03-23T10:23:06.665Z,604.00
2023-03-23T10:24:06.750Z,607.00
2023-03-23T10:25:07.770Z,604.00
2023-03-23T10:26:07.820Z,614.00
2023-03-23T10:27:06.872Z,616.00
2023-03-23T10:28:06.908Z,613.00
2023-03-23T10:29:07.970Z,617.00
2023-03-23T10:32:07.122Z,622.00
2023-03-23T10:33:07.157Z,623.00
2023-03-23T10:34:08.205Z,621.00
2023-03-23T10:35:08.274Z,622.00
2023-03-23T10:36:08.373Z,618.00
2023-03-23T10:39:07.487Z,624.00
2023-03-23T10:40:07.525Z,627.00
2023-03-23T10:41:07.586Z,627.00
2023-03-23T10:42:08.650Z,626.00
2023-03-23T10:43:08.701Z,629.00
2023-03-23T10:44:08.768Z,631.00
2023-03-23T10:45:08.800Z,636.00
2023-03-23T10:48:07.994Z,642.00
2023-03-23T10:49:08.250Z,635.00
2023-03-23T10:50:08.027Z,640.00
2023-03-23T10:51:08.080Z,635.00
2023-03-23T10:52:09.121Z,637.00
2023-03-23T10:53:09.142Z,641.00
2023-03-23T10:54:10.700Z,639.00
2023-03-23T10:56:08.162Z,677.00
2023-03-23T10:57:08.155Z,670.00
2023-03-23T10:58:09.150Z,684.00
2023-03-23T11:01:08.142Z,674.00
2023-03-23T11:02:10.360Z,667.00
2023-03-23T11:03:09.105Z,668.00
2023-03-23T11:04:09.112Z,670.00
2023-03-23T11:06:08.113Z,680.00
2023-03-23T11:07:09.140Z,694.00
2023-03-23T11:08:08.082Z,701.00
2023-03-23T11:09:08.082Z,682.00
2023-03-23T11:10:09.061Z,709.00
2023-03-23T11:12:08.082Z,689.00
2023-03-23T11:13:09.106Z,716.00
2023-03-23T11:18:08.012Z,720.00
2023-03-23T11:19:08.017Z,702.00
2023-03-23T11:20:08.995Z,717.00
2023-03-23T11:21:09.002Z,726.00
2023-03-23T11:22:08.999Z,728.00
2023-03-23T11:23:09.009Z,715.00
2023-03-23T11:28:07.937Z,730.00
2023-03-23T11:29:09.243Z,736.00
2023-03-23T11:33:07.923Z,750.00
2023-03-23T11:34:08.899Z,765.00
2023-03-23T11:35:16.150Z,752.00
2023-03-23T11:36:08.944Z,753.00
2023-03-23T11:38:07.872Z,755.00
2023-03-23T11:39:07.912Z,761.00
2023-03-23T11:40:08.857Z,776.00
2023-03-23T11:44:07.847Z,751.00
2023-03-23T11:48:07.794Z,777.00
2023-03-23T11:49:19.224Z,772.00
2023-03-23T11:51:07.773Z,775.00
2023-03-23T11:52:08.777Z,778.00
2023-03-23T11:53:08.779Z,787.00
2023-03-23T11:54:08.770Z,789.00
2023-03-23T11:55:08.780Z,785.00
2023-03-23T12:00:07.725Z,792.00
2023-03-23T12:02:16.915Z,790.00
2023-03-23T12:03:08.698Z,790.00
2023-03-23T12:04:08.682Z,792.00
2023-03-23T12:05:08.690Z,792.00
2023-03-23T12:09:07.659Z,789.00
2023-03-23T12:10:07.649Z,776.00
2023-03-23T12:11:08.669Z,788.00
2023-03-23T12:13:07.924Z,780.00
2023-03-23T12:14:08.633Z,781.00
2023-03-23T12:19:07.582Z,771.00
2023-03-23T12:21:07.595Z,771.00
2023-03-23T12:22:08.552Z,772.00
2023-03-23T12:23:08.564Z,773.00
2023-03-23T12:26:07.531Z,774.00
2023-03-23T12:27:07.592Z,764.00
2023-03-23T12:28:08.514Z,767.00
2023-03-23T12:29:08.523Z,771.00
2023-03-23T12:30:08.503Z,760.00
2023-03-23T12:31:08.497Z,763.00
2023-03-23T12:36:07.513Z,751.00
2023-03-23T12:37:08.455Z,751.00
2023-03-23T12:38:08.439Z,750.00
2023-03-23T12:39:08.444Z,743.00
2023-03-23T12:42:07.435Z,743.00
2023-03-23T12:43:08.469Z,742.00
2023-03-23T12:44:08.429Z,744.00
2023-03-23T12:45:08.402Z,741.00
2023-03-23T12:47:07.379Z,727.00
2023-03-23T12:48:07.378Z,736.00
2023-03-23T12:49:07.376Z,734.00
2023-03-23T12:50:08.370Z,742.00
2023-03-23T12:51:08.373Z,726.00
2023-03-23T12:55:07.326Z,733.00
2023-03-23T12:56:08.323Z,726.00
2023-03-23T12:57:08.408Z,740.00
2023-03-23T12:58:08.382Z,732.00
2023-03-23T12:59:08.451Z,728.00
2023-03-23T13:00:08.457Z,714.00
2023-03-23T13:01:08.500Z,734.00
2023-03-23T13:02:07.511Z,730.00
2023-03-23T13:03:08.555Z,715.00
2023-03-23T13:04:08.583Z,723.00
2023-03-23T13:05:08.629Z,715.00
2023-03-23T13:08:07.607Z,716.00
2023-03-23T13:09:07.741Z,718.00
2023-03-23T13:10:08.687Z,715.00
2023-03-23T13:11:08.736Z,719.00
2023-03-23T13:12:08.763Z,720.00
2023-03-23T13:14:07.826Z,719.00
2023-03-23T13:15:08.861Z,726.00
2023-03-23T13:16:09.666Z,720.00
2023-03-23T13:17:08.900Z,713.00
2023-03-23T13:18:08.952Z,695.00
2023-03-23T13:19:09.002Z,698.00
2023-03-23T13:20:09.034Z,699.00
2023-03-23T13:21:08.091Z,722.00
2023-03-23T13:22:08.153Z,712.00
2023-03-23T13:23:09.169Z,711.00
2023-03-23T13:24:09.195Z,702.00
2023-03-23T13:25:09.250Z,683.00
2023-03-23T13:26:09.292Z,705.00
2023-03-23T13:27:09.393Z,697.00
2023-03-23T13:30:08.493Z,710.00
2023-03-23T13:31:08.547Z,703.00
2023-03-23T13:35:08.727Z,682.00
2023-03-23T13:36:13.337Z,690.00
2023-03-23T13:37:09.772Z,691.00
2023-03-23T13:38:08.755Z,695.00
2023-03-23T13:39:08.739Z,691.00
2023-03-23T13:40:10.148Z,699.00
2023-03-23T13:41:09.751Z,691.00
2023-03-23T13:44:08.711Z,700.00
2023-03-23T13:45:09.728Z,699.00
2023-03-23T13:47:08.720Z,689.00
2023-03-23T13:48:09.675Z,687.00
2023-03-23T13:49:16.103Z,683.00
2023-03-23T13:50:09.686Z,685.00
2023-03-23T13:51:09.667Z,686.00
2023-03-23T13:53:08.709Z,693.00
2023-03-23T13:56:15.461Z,690.00
2023-03-23T13:57:09.620Z,691.00
2023-03-23T13:58:09.612Z,692.00
2023-03-23T14:02:08.570Z,691.00
2023-03-23T14:03:09.586Z,689.00
2023-03-23T14:04:09.572Z,669.00
2023-03-23T14:05:08.606Z,685.00
2023-03-23T14:06:09.651Z,684.00
2023-03-23T14:07:09.702Z,680.00
2023-03-23T14:10:08.868Z,668.00
2023-03-23T14:11:09.876Z,673.00
2023-03-23T14:12:09.900Z,674.00
2023-03-23T14:16:09.013Z,659.00
2023-03-23T14:17:10.046Z,663.00
2023-03-23T14:18:10.138Z,677.00
2023-03-23T14:19:10.192Z,666.00
2023-03-23T14:22:09.307Z,678.00
2023-03-23T14:23:10.333Z,662.00
2023-03-23T14:27:09.412Z,662.00
2023-03-23T14:28:10.418Z,664.00
2023-03-23T14:29:10.466Z,664.00
2023-03-23T14:30:10.462Z,667.00
2023-03-23T14:32:09.485Z,663.00
2023-03-23T14:33:10.482Z,662.00
2023-03-23T14:34:10.485Z,658.00
2023-03-23T14:35:12.625Z,651.00
2023-03-23T14:41:09.467Z,655.00
2023-03-23T14:42:09.448Z,654.00
2023-03-23T14:43:10.428Z,654.00
2023-03-23T14:48:09.393Z,655.00
2023-03-23T14:52:09.376Z,653.00
2023-03-23T14:54:09.345Z,655.00
2023-03-23T14:55:10.350Z,653.00
2023-03-23T15:02:09.298Z,653.00
2023-03-23T15:03:10.283Z,654.00
2023-03-23T15:05:09.298Z,652.00
2023-03-23T15:06:09.306Z,651.00
2023-03-23T15:07:10.294Z,645.00
2023-03-23T15:11:09.244Z,645.00
2023-03-23T15:12:10.229Z,649.00
2023-03-23T15:15:09.207Z,644.00
2023-03-23T15:16:10.220Z,649.00
2023-03-23T15:22:09.172Z,645.00
2023-03-23T15:23:10.184Z,648.00
2023-03-23T15:28:09.126Z,646.00
2023-03-23T15:29:09.132Z,650.00
2023-03-23T15:30:10.137Z,649.00
2023-03-23T15:35:12.467Z,618.00
2023-03-23T15:36:10.094Z,610.00
2023-03-23T15:37:18.483Z,563.00
2023-03-23T15:38:10.113Z,604.00
2023-03-23T15:42:09.048Z,565.00
2023-03-23T15:43:10.050Z,576.00
2023-03-23T15:44:10.038Z,694.00
2023-03-23T15:45:10.024Z,954.00
2023-03-23T15:50:08.990Z,1795.00
2023-03-23T15:51:08.991Z,1927.00
2023-03-23T15:52:09.968Z,1471.00
2023-03-23T15:53:08.968Z,1493.00
2023-03-23T15:54:14.120Z,1629.00
2023-03-23T15:55:09.963Z,1630.00
2023-03-23T15:58:08.945Z,1529.00
2023-03-23T15:59:09.949Z,1473.00
2023-03-23T16:00:10.003Z,1473.00
2023-03-23T16:01:10.099Z,1437.00
2023-03-23T16:02:10.147Z,1476.00
2023-03-23T16:05:09.245Z,1532.00
2023-03-23T16:06:09.312Z,1549.00
2023-03-23T16:07:10.363Z,1560.00
2023-03-23T16:08:09.411Z,1548.00
2023-03-23T16:09:10.478Z,1510.00
2023-03-23T16:10:10.538Z,1356.00
2023-03-23T16:11:10.597Z,1282.00
2023-03-23T16:15:09.619Z,1073.00
2023-03-23T16:16:10.751Z,830.00
2023-03-23T16:19:09.662Z,658.00
2023-03-23T16:27:09.941Z,1043.00
2023-03-23T16:28:10.935Z,1015.00
2023-03-23T16:29:18.814Z,1031.00
